Time;durP1;ratioP1;P1;durP2;ratioP2;P2;SDS_P1;SDS_P2;PMS_P1;PMS_P2;Temp;Humidity;BMP_temperature;BMP_pressure;BME280_temperature;BME280_humidity;BME280_pressure;Samples;Min_cycle;Max_cycle;Signal;HPM_P1;HPM_P2
2023/09/15 00:04:17;;;;;;;3.85;1.30;;;;;;;13.57;63.78;98358.59;10449639;28;20088;-62
2023/09/15 00:09:38;;;;;;;2.75;1.60;;;;;;;13.54;64.34;98367.50;10463830;28;20257;-62
2023/09/15 00:14:58;;;;;;;4.65;1.70;;;;;;;13.43;64.25;98355.63;10448969;28;20133;-62
2023/09/15 00:20:20;;;;;;;8.50;1.58;;;;;;;13.34;64.30;98362.03;10448571;28;20119;-62
2023/09/15 00:25:40;;;;;;;3.60;1.27;;;;;;;13.34;64.82;98350.81;10448620;28;20073;-62
2023/09/15 00:31:01;;;;;;;3.92;1.33;;;;;;;13.27;64.96;98357.34;10463074;28;20080;-62
2023/09/15 00:36:22;;;;;;;4.13;1.38;;;;;;;13.20;64.95;98346.31;10447868;28;20060;-62
2023/09/15 00:41:43;;;;;;;2.90;1.50;;;;;;;13.17;65.35;98346.16;10463017;28;20072;-62
2023/09/15 00:47:03;;;;;;;8.52;2.00;;;;;;;13.15;65.39;98346.03;10462527;28;20045;-63
2023/09/15 00:52:25;;;;;;;3.75;1.55;;;;;;;13.17;65.85;98342.63;10433294;28;20048;-62
2023/09/15 00:57:47;;;;;;;2.90;1.20;;;;;;;13.15;65.85;98340.41;10433758;28;20063;-62
2023/09/15 01:03:08;;;;;;;3.22;1.40;;;;;;;13.15;65.96;98342.50;10450590;28;20539;-71
2023/09/15 01:08:34;;;;;;;4.47;1.38;;;;;;;13.11;66.23;98350.59;10434860;28;20527;-62
2023/09/15 01:13:56;;;;;;;9.80;1.92;;;;;;;13.10;66.50;98341.47;10446907;28;20115;-62
2023/09/15 01:19:38;;;;;;;3.53;1.50;;;;;;;13.07;66.71;98348.28;10461243;28;20091;-62
2023/09/15 01:25:25;;;;;;;7.03;1.60;;;;;;;13.08;66.70;98341.34;10447866;28;20112;-62
2023/09/15 01:30:49;;;;;;;4.20;1.55;;;;;;;13.08;66.66;98358.16;10445628;28;20487;-62
2023/09/15 01:36:10;;;;;;;3.63;1.90;;;;;;;13.09;66.96;98359.63;10432945;28;20403;-62
2023/09/15 01:41:30;;;;;;;6.22;1.60;;;;;;;13.14;67.06;98355.78;10460205;28;20440;-62
2023/09/15 01:46:51;;;;;;;2.95;1.50;;;;;;;13.22;67.07;98352.81;10460223;28;20101;-62
2023/09/15 01:52:12;;;;;;;3.47;1.85;;;;;;;13.32;67.33;98347.88;10459831;28;20041;-62
2023/09/15 01:57:33;;;;;;;3.78;1.65;;;;;;;13.35;66.92;98349.47;10459710;28;20069;-62
2023/09/15 02:02:54;;;;;;;3.92;1.55;;;;;;;13.35;67.06;98351.53;10444829;28;20499;-62
2023/09/15 02:08:15;;;;;;;5.07;1.60;;;;;;;13.35;67.67;98346.66;10459416;28;20044;-62
2023/09/15 02:13:42;;;;;;;3.78;1.65;;;;;;;13.31;67.78;98343.56;10430325;28;20041;-62
2023/09/15 02:19:07;;;;;;;4.97;2.17;;;;;;;13.33;67.16;98349.34;10430708;28;20045;-62
2023/09/15 02:24:28;;;;;;;5.63;1.42;;;;;;;13.30;67.46;98356.13;10458753;28;20065;-62
2023/09/15 02:29:51;;;;;;;3.20;1.80;;;;;;;13.23;67.77;98357.06;10443388;28;20044;-62
2023/09/15 02:35:12;;;;;;;3.22;1.63;;;;;;;13.20;67.85;98352.66;10443520;28;20033;-62
2023/09/15 02:40:33;;;;;;;3.22;1.70;;;;;;;13.17;68.45;98362.97;10430149;28;20041;-62
2023/09/15 02:45:54;;;;;;;3.55;1.95;;;;;;;13.16;68.28;98366.38;10443903;28;20068;-62
2023/09/15 02:51:17;;;;;;;4.20;1.77;;;;;;;13.16;68.31;98363.56;10445293;28;20080;-66
2023/09/15 02:56:38;;;;;;;5.93;2.10;;;;;;;13.16;68.69;98360.78;10457732;28;20060;-62
2023/09/15 03:01:59;;;;;;;3.05;1.67;;;;;;;13.13;68.75;98359.19;10442190;28;20072;-62
2023/09/15 03:07:21;;;;;;;4.60;1.90;;;;;;;13.17;69.12;98362.25;10387570;28;20072;-62
2023/09/15 03:12:42;;;;;;;3.88;1.63;;;;;;;13.18;68.74;98353.22;10415831;28;20044;-62
2023/09/15 03:18:04;;;;;;;6.00;1.92;;;;;;;13.15;68.98;98351.63;10400232;28;20073;-62
2023/09/15 03:23:25;;;;;;;6.20;2.10;;;;;;;13.14;69.07;98349.44;10400757;28;20069;-62
2023/09/15 03:28:47;;;;;;;5.05;2.05;;;;;;;13.12;69.38;98347.22;10415398;28;20151;-62
2023/09/15 03:34:08;;;;;;;3.58;2.13;;;;;;;13.01;69.04;98342.25;10415265;28;20091;-62
2023/09/15 03:39:29;;;;;;;6.20;1.85;;;;;;;12.88;69.39;98339.97;10400384;28;20455;-62
2023/09/15 03:44:50;;;;;;;3.03;1.95;;;;;;;12.82;69.93;98350.75;10401295;28;20041;-62
2023/09/15 03:50:14;;;;;;;5.50;2.10;;;;;;;12.77;70.05;98346.22;10386538;28;20081;-62
2023/09/15 03:55:35;;;;;;;3.93;1.97;;;;;;;12.68;70.21;98347.00;10387351;28;20095;-62
2023/09/15 04:00:56;;;;;;;3.88;2.00;;;;;;;12.62;70.16;98344.50;10400454;28;20315;-62
2023/09/15 04:06:17;;;;;;;3.95;2.03;;;;;;;12.43;70.49;98342.50;10420270;28;20121;-62
2023/09/15 04:11:41;;;;;;;5.18;2.08;;;;;;;12.31;70.90;98348.00;10455750;28;20073;-62
2023/09/15 04:17:05;;;;;;;;;;;;;;;12.29;71.64;98345.06;10456325;28;20071;-62
2023/09/15 04:22:27;;;;;;;5.80;2.00;;;;;;;12.30;71.04;98340.19;10455860;28;19927;-62
2023/09/15 04:27:47;;;;;;;3.67;1.88;;;;;;;12.25;71.33;98344.03;10440885;28;20431;-62
2023/09/15 04:33:09;;;;;;;7.40;2.55;;;;;;;12.18;71.02;98354.06;10448328;28;20049;-62
2023/09/15 04:38:31;;;;;;;4.18;1.95;;;;;;;12.12;71.73;98359.22;10447962;28;20065;-62
2023/09/15 04:43:53;;;;;;;7.07;2.65;;;;;;;12.17;72.06;98355.41;10462751;28;20106;-62
2023/09/15 04:49:15;;;;;;;5.13;2.30;;;;;;;12.26;72.03;98359.50;10447486;28;20060;-62
2023/09/15 04:54:37;;;;;;;5.38;2.28;;;;;;;12.32;71.91;98354.31;10447566;28;20045;-62
2023/09/15 04:59:59;;;;;;;3.97;2.10;;;;;;;12.43;71.83;98352.97;10446983;28;20179;-62
2023/09/15 05:05:20;;;;;;;8.13;3.38;;;;;;;12.53;71.85;98357.19;10433243;28;20053;-62
2023/09/15 05:10:41;;;;;;;7.00;3.33;;;;;;;12.71;71.81;98352.13;10446838;28;20495;-62
2023/09/15 05:16:04;;;;;;;9.77;3.67;;;;;;;14.36;72.09;98348.16;10446425;28;20048;-62
2023/09/15 05:21:25;;;;;;;9.93;3.72;;;;;;;16.94;71.56;98357.34;10445914;28;20080;-62
2023/09/15 05:26:46;;;;;;;4.60;2.70;;;;;;;22.04;64.02;98357.69;10445734;28;20122;-62
2023/09/15 05:32:07;;;;;;;6.32;2.88;;;;;;;24.74;56.69;98360.69;10445536;28;20487;-62
2023/09/15 05:37:28;;;;;;;4.25;2.67;;;;;;;26.96;53.08;98368.06;10445219;28;20122;-62
2023/09/15 05:42:48;;;;;;;4.97;2.30;;;;;;;29.71;48.22;98381.56;10430502;28;20132;-63
2023/09/15 05:48:16;;;;;;;4.85;2.33;;;;;;;32.12;42.61;98378.66;10460002;28;20056;-63
2023/09/15 05:53:36;;;;;;;4.32;2.65;;;;;;;32.47;36.43;98388.47;10459703;28;20183;-63
2023/09/15 05:58:58;;;;;;;7.88;2.88;;;;;;;31.04;34.40;98394.41;10459601;28;20136;-63
2023/09/15 06:04:19;;;;;;;4.35;2.97;;;;;;;30.95;30.19;98392.28;10459047;28;20080;-63
2023/09/15 06:09:39;;;;;;;5.07;2.95;;;;;;;27.56;32.44;98396.00;10458905;28;20076;-63
2023/09/15 06:15:00;;;;;;;5.70;2.80;;;;;;;30.01;33.07;98385.91;10458635;28;20060;-62
2023/09/15 06:20:21;;;;;;;8.57;3.40;;;;;;;34.48;26.86;98389.41;10458512;28;20416;-64
2023/09/15 06:25:44;;;;;;;6.47;2.85;;;;;;;40.09;19.00;98389.06;10458661;28;20045;-65
2023/09/15 06:31:05;;;;;;;5.65;2.83;;;;;;;42.12;17.06;98385.72;10458762;28;20079;-65
2023/09/15 06:36:26;;;;;;;7.75;4.10;;;;;;;41.48;16.33;98375.63;10458184;28;20079;-65
2023/09/15 06:41:47;;;;;;;5.28;3.17;;;;;;;43.82;15.01;98384.06;10429323;28;20136;-65
2023/09/15 06:47:15;;;;;;;4.60;2.40;;;;;;;46.74;12.44;98378.91;10442732;28;20088;-65
2023/09/15 06:52:37;;;;;;;3.78;2.70;;;;;;;47.85;10.52;98378.31;10456556;28;20053;-66
2023/09/15 06:57:58;;;;;;;4.90;2.33;;;;;;;49.07;10.51;98379.44;10457169;28;20044;-66
2023/09/15 07:03:19;;;;;;;4.00;2.22;;;;;;;48.73;9.49;98380.59;10457521;28;20083;-66
2023/09/15 07:08:40;;;;;;;6.03;2.33;;;;;;;48.80;9.71;98374.88;10456866;28;20053;-66
2023/09/15 07:14:01;;;;;;;5.13;1.88;;;;;;;49.34;9.25;98369.16;10457500;28;20163;-66
2023/09/15 07:19:22;;;;;;;6.68;2.40;;;;;;;45.93;10.07;98376.25;10457041;28;20510;-67
2023/09/15 07:24:43;;;;;;;4.78;2.47;;;;;;;43.15;12.28;98370.13;10456651;28;20075;-67
2023/09/15 07:30:04;;;;;;;5.60;2.30;;;;;;;47.97;10.70;98370.13;10456601;28;20132;-66
2023/09/15 07:35:25;;;;;;;4.70;2.30;;;;;;;51.42;8.63;98358.81;10456343;28;20080;-67
2023/09/15 07:40:46;;;;;;;5.68;2.20;;;;;;;52.70;7.38;98354.44;10456251;28;20144;-66
2023/09/15 07:46:07;;;;;;;6.03;1.80;;;;;;;53.33;7.14;98358.00;10456116;28;20075;-67
2023/09/15 07:51:35;;;;;;;5.82;2.00;;;;;;;53.50;6.58;98365.38;10456077;28;20071;-67
2023/09/15 07:56:56;;;;;;;5.97;1.83;;;;;;;54.18;6.66;98357.72;10455920;28;20076;-66
2023/09/15 08:02:16;;;;;;;4.82;1.63;;;;;;;53.64;6.67;98349.72;10457711;28;20072;-67
2023/09/15 08:07:37;;;;;;;5.63;1.92;;;;;;;52.33;6.58;98355.66;10422606;28;20057;-67
2023/09/15 08:12:58;;;;;;;3.03;1.77;;;;;;;51.85;7.18;98348.28;10422546;28;20076;-67
2023/09/15 08:18:19;;;;;;;2.67;1.85;;;;;;;51.65;7.08;98339.63;10422463;28;20128;-67
2023/09/15 08:23:40;;;;;;;3.22;2.15;;;;;;;51.00;7.12;98339.50;10422435;28;20104;-67
2023/09/15 08:29:01;;;;;;;4.03;2.13;;;;;;;50.53;7.37;98336.97;10421935;28;20072;-67
2023/09/15 08:34:22;;;;;;;4.13;2.03;;;;;;;48.14;8.88;98337.75;10421573;28;20484;-66
2023/09/15 08:39:45;;;;;;;4.70;2.20;;;;;;;48.78;8.94;98342.47;10421485;28;20483;-66
2023/09/15 08:45:07;;;;;;;6.38;2.47;;;;;;;47.94;9.36;98336.34;10421516;28;20498;-66
2023/09/15 08:50:28;;;;;;;3.55;2.20;;;;;;;47.47;9.79;98339.78;10406868;28;20080;-67
2023/09/15 08:55:48;;;;;;;3.47;2.28;;;;;;;48.13;9.39;98337.03;10392487;28;20129;-67
2023/09/15 09:01:09;;;;;;;4.80;2.13;;;;;;;49.96;8.78;98332.88;10420622;28;20495;-67
2023/09/15 09:06:34;;;;;;;5.15;2.00;;;;;;;50.38;8.06;98314.44;10454276;28;20053;-67
2023/09/15 09:11:55;;;;;;;2.65;1.75;;;;;;;51.14;7.88;98317.44;10447476;28;20130;-67
2023/09/15 09:17:16;;;;;;;2.15;1.73;;;;;;;52.64;7.23;98314.03;10460659;28;20380;-67
2023/09/15 09:22:37;;;;;;;2.53;2.00;;;;;;;53.47;6.29;98311.88;10432546;28;20049;-67
2023/09/15 09:27:58;;;;;;;2.55;1.40;;;;;;;54.96;6.33;98299.59;10460884;28;20041;-67
2023/09/15 09:33:20;;;;;;;3.40;1.50;;;;;;;54.10;5.76;98310.78;10445784;28;20120;-67
2023/09/15 09:38:42;;;;;;;3.00;1.83;;;;;;;52.98;6.73;98309.31;10460446;28;20415;-67
2023/09/15 09:44:03;;;;;;;3.17;1.35;;;;;;;50.37;7.27;98300.44;10431830;28;20056;-66
2023/09/15 09:49:24;;;;;;;3.42;1.25;;;;;;;51.07;8.36;98292.13;10459937;28;20049;-67
2023/09/15 09:54:49;;;;;;;4.95;1.35;;;;;;;55.48;5.97;98279.88;10444860;28;20045;-67
2023/09/15 10:00:10;;;;;;;2.95;1.70;;;;;;;54.36;5.38;98280.50;10444990;28;20064;-66
2023/09/15 10:05:33;;;;;;;3.75;1.48;;;;;;;45.58;9.78;98271.00;10459318;28;20057;-66
2023/09/15 10:10:54;;;;;;;3.00;1.45;;;;;;;43.69;10.78;98274.56;10459585;28;20214;-66
2023/09/15 10:16:15;;;;;;;4.70;1.75;;;;;;;35.71;16.16;98278.03;10458983;28;20483;-65
2023/09/15 10:21:36;;;;;;;3.92;2.28;;;;;;;32.53;18.24;98286.59;10444046;28;20052;-65
2023/09/15 10:26:56;;;;;;;6.45;2.90;;;;;;;31.18;23.21;98284.09;10429432;28;20128;-65
2023/09/15 10:32:18;;;;;;;4.97;2.60;;;;;;;33.72;20.09;98274.09;10429771;28;20049;-65
2023/09/15 10:37:41;;;;;;;6.85;2.65;;;;;;;32.56;21.68;98273.53;10443553;28;20045;-65
2023/09/15 10:43:06;;;;;;;8.43;3.20;;;;;;;30.26;24.41;98263.56;10457984;28;20045;-64
2023/09/15 10:48:44;;;;;;;6.95;2.60;;;;;;;31.21;24.12;98273.28;10457673;28;20068;-64
2023/09/15 10:54:05;;;;;;;4.43;2.97;;;;;;;29.70;25.20;98262.19;10457691;28;20503;-64
2023/09/15 10:59:26;;;;;;;4.28;2.30;;;;;;;31.46;26.47;98268.78;10442346;28;20052;-64
2023/09/15 11:04:47;;;;;;;4.97;2.35;;;;;;;31.36;25.96;98268.84;10457162;28;20052;-64
2023/09/15 11:10:08;;;;;;;3.90;2.35;;;;;;;35.18;21.16;98250.25;10456893;28;20085;-64
2023/09/15 11:15:29;;;;;;;6.20;2.83;;;;;;;36.60;19.09;98255.34;10456899;28;20121;-65
2023/09/15 11:20:49;;;;;;;4.45;2.33;;;;;;;33.88;20.03;98241.31;10457201;28;20144;-64
2023/09/15 11:26:10;;;;;;;4.93;2.15;;;;;;;31.83;23.67;98245.41;10428083;28;20140;-64
2023/09/15 11:31:35;;;;;;;4.50;1.75;;;;;;;34.49;21.61;98226.38;10456864;28;20056;-64
2023/09/15 11:36:58;;;;;;;6.18;2.25;;;;;;;32.72;21.00;98232.88;10428683;28;20133;-64
2023/09/15 11:42:19;;;;;;;4.20;1.70;;;;;;;32.25;21.76;98223.34;10450232;28;20132;-64
2023/09/15 11:47:40;;;;;;;3.75;1.58;;;;;;;28.82;26.31;98226.09;10464791;28;20072;-64
2023/09/15 11:53:01;;;;;;;4.87;2.13;;;;;;;28.69;26.88;98219.63;10449761;28;20102;-61
2023/09/15 11:58:21;;;;;;;3.97;1.83;;;;;;;28.27;27.70;98206.50;10464257;28;20167;-64
2023/09/15 12:03:42;;;;;;;4.97;2.00;;;;;;;27.48;28.07;98195.25;10463520;28;20049;-61
2023/09/15 12:09:03;;;;;;;2.00;1.40;;;;;;;27.62;28.66;98186.75;10449167;28;20061;-61
2023/09/15 12:14:24;;;;;;;2.80;1.70;;;;;;;27.59;28.84;98182.41;10463732;28;20052;-61
2023/09/15 12:19:48;;;;;;;4.80;1.70;;;;;;;27.09;28.56;98174.88;10449098;28;20765;-64
2023/09/15 12:25:10;;;;;;;4.07;1.50;;;;;;;26.69;29.09;98174.44;10435368;28;20065;-61
2023/09/15 12:30:33;;;;;;;2.78;1.60;;;;;;;25.47;30.86;98190.69;10463312;28;20560;-61
2023/09/15 12:35:56;;;;;;;3.40;1.27;;;;;;;26.34;30.21;98187.63;10462775;28;20045;-61
2023/09/15 12:41:17;;;;;;;2.38;1.23;;;;;;;25.37;30.88;98176.94;10462725;28;20049;-61
2023/09/15 12:46:38;;;;;;;2.30;1.38;;;;;;;25.75;30.65;98161.81;10462797;28;20077;-61
2023/09/15 12:51:59;;;;;;;2.65;1.10;;;;;;;25.98;30.72;98159.28;10446423;28;20064;-61
2023/09/15 12:57:20;;;;;;;3.83;1.13;;;;;;;25.69;31.19;98156.72;10462225;28;20041;-61
2023/09/15 13:02:41;;;;;;;4.57;1.38;;;;;;;25.12;31.79;98143.72;10461632;28;20076;-61
2023/09/15 13:08:03;;;;;;;1.48;0.98;;;;;;;24.73;32.29;98140.19;10446658;28;20150;-61
2023/09/15 13:13:24;;;;;;;5.53;1.58;;;;;;;24.75;32.19;98134.50;10461804;28;20471;-61
2023/09/15 13:18:47;;;;;;;2.85;1.02;;;;;;;25.16;31.40;98123.78;10460932;28;20052;-61
2023/09/15 13:24:08;;;;;;;5.32;1.42;;;;;;;24.36;33.06;98120.94;10460903;28;20091;-61
2023/09/15 13:29:29;;;;;;;5.63;1.33;;;;;;;24.02;34.25;98121.66;10460775;28;20129;-61
2023/09/15 13:34:50;;;;;;;3.70;1.63;;;;;;;24.32;34.06;98121.59;10445937;28;20557;-61
2023/09/15 13:40:11;;;;;;;2.33;1.30;;;;;;;24.67;33.92;98105.09;10460246;28;20154;-61
2023/09/15 13:45:31;;;;;;;4.63;1.73;;;;;;;24.18;34.75;98115.56;10460286;28;20171;-61
2023/09/15 13:50:52;;;;;;;4.30;1.20;;;;;;;23.72;35.74;98115.31;10459982;28;20128;-61
2023/09/15 13:56:13;;;;;;;2.00;1.17;;;;;;;23.98;35.24;98110.91;10459964;28;20075;-61
2023/09/15 14:01:36;;;;;;;4.53;1.25;;;;;;;24.24;34.23;98116.41;10459350;28;20083;-61
2023/09/15 14:07:00;;;;;;;2.58;1.20;;;;;;;24.25;34.50;98091.47;10459158;28;20136;-61
2023/09/15 14:12:20;;;;;;;6.97;1.30;;;;;;;24.19;34.65;98099.91;10459507;28;20080;-61
2023/09/15 14:17:41;;;;;;;2.40;1.27;;;;;;;24.22;34.72;98098.53;10458913;28;20543;-61
2023/09/15 14:23:02;;;;;;;3.45;1.40;;;;;;;24.31;34.04;98100.16;10458939;28;20052;-61
2023/09/15 14:28:23;;;;;;;4.20;1.23;;;;;;;23.79;34.09;98105.50;10459057;28;20483;-61
2023/09/15 14:33:43;;;;;;;3.30;1.20;;;;;;;23.56;35.00;98095.75;10458260;28;20498;-61
2023/09/15 14:39:06;;;;;;;1.83;0.98;;;;;;;23.29;35.85;98092.28;10457713;28;20127;-61
2023/09/15 14:44:26;;;;;;;3.80;0.93;;;;;;;22.91;36.49;98080.00;10458120;28;20415;-61
2023/09/15 14:49:47;;;;;;;3.70;1.10;;;;;;;22.47;37.64;98071.75;10457739;28;20310;-61
2023/09/15 14:55:08;;;;;;;4.00;1.10;;;;;;;22.64;37.28;98078.59;10457534;28;20116;-61
2023/09/15 15:00:29;;;;;;;3.05;1.30;;;;;;;22.80;37.31;98064.78;10442680;28;20075;-61
2023/09/15 15:05:51;;;;;;;2.60;0.93;;;;;;;23.22;36.65;98064.34;10457468;28;20081;-61
2023/09/15 15:11:11;;;;;;;2.83;1.33;;;;;;;23.39;36.37;98066.16;10441664;28;20160;-61
2023/09/15 15:16:32;;;;;;;3.78;1.23;;;;;;;23.40;36.27;98062.63;10456996;28;20502;-61
2023/09/15 15:21:53;;;;;;;2.38;1.02;;;;;;;23.14;36.55;98062.75;10456402;28;20052;-61
2023/09/15 15:27:14;;;;;;;4.43;1.40;;;;;;;22.87;37.09;98060.69;10456419;28;20187;-61
2023/09/15 15:32:35;;;;;;;4.05;1.20;;;;;;;22.73;37.24;98057.47;10456361;28;20048;-61
2023/09/15 15:37:58;;;;;;;1.90;1.00;;;;;;;22.66;37.61;98055.88;10456528;28;20053;-61
2023/09/15 15:43:18;;;;;;;2.58;0.95;;;;;;;22.58;37.67;98056.38;10456079;28;20069;-61
2023/09/15 15:48:39;;;;;;;2.28;1.00;;;;;;;22.27;38.37;98055.59;10456833;28;20053;-61
2023/09/15 15:54:00;;;;;;;5.70;1.42;;;;;;;22.05;38.70;98057.13;10441457;28;20076;-61
2023/09/15 15:59:22;;;;;;;2.47;0.90;;;;;;;21.94;38.80;98047.59;10455929;28;20544;-61
2023/09/15 16:04:44;;;;;;;2.72;1.10;;;;;;;21.85;39.41;98043.06;10456198;28;20085;-61
2023/09/15 16:10:06;;;;;;;1.25;0.70;;;;;;;21.77;39.58;98049.25;10455682;28;20493;-61
2023/09/15 16:15:27;;;;;;;4.47;0.80;;;;;;;21.67;39.79;98041.16;10455700;28;20079;-61
2023/09/15 16:20:50;;;;;;;4.82;1.20;;;;;;;21.62;39.67;98038.88;10426654;28;20123;-61
2023/09/15 16:26:10;;;;;;;2.20;1.20;;;;;;;21.55;39.72;98040.09;10433088;28;20060;-61
2023/09/15 16:31:32;;;;;;;1.92;0.82;;;;;;;21.41;39.94;98034.72;10463115;28;20183;-61
2023/09/15 16:36:53;;;;;;;1.73;0.93;;;;;;;21.36;40.11;98036.00;10463002;28;20167;-61
2023/09/15 16:42:13;;;;;;;3.42;1.10;;;;;;;21.26;40.60;98036.41;10462788;28;20072;-61
2023/09/15 16:47:34;;;;;;;2.92;0.82;;;;;;;21.19;40.68;98029.06;10462389;28;20049;-61
2023/09/15 16:52:55;;;;;;;4.35;1.00;;;;;;;21.05;41.11;98031.50;10462459;28;20110;-61
2023/09/15 16:58:16;;;;;;;3.75;1.00;;;;;;;20.97;40.99;98025.56;10462054;28;20122;-61
2023/09/15 17:03:37;;;;;;;4.00;1.00;;;;;;;20.85;41.16;98026.63;10462221;28;20136;-61
2023/09/15 17:08:58;;;;;;;6.68;1.20;;;;;;;20.71;42.07;98037.50;10446537;28;20053;-61
2023/09/15 17:14:19;;;;;;;4.70;1.23;;;;;;;20.55;42.00;98034.84;10461695;28;20456;-61
2023/09/15 17:19:40;;;;;;;2.28;1.10;;;;;;;20.38;43.05;98044.22;10461434;28;20072;-61
2023/09/15 17:25:01;;;;;;;3.85;1.30;;;;;;;20.25;42.24;98033.81;10461080;28;20543;-61
2023/09/15 17:30:22;;;;;;;5.30;1.35;;;;;;;20.12;43.07;98049.69;10460949;28;20144;-61
2023/09/15 17:35:43;;;;;;;5.78;1.08;;;;;;;20.05;43.26;98050.84;10445064;28;20135;-61
2023/09/15 17:41:05;;;;;;;4.57;1.40;;;;;;;19.95;43.74;98056.88;10460538;28;20133;-61
2023/09/15 17:46:26;;;;;;;4.72;1.10;;;;;;;19.88;43.86;98054.47;10460369;28;20059;-61
2023/09/15 17:51:47;;;;;;;4.25;1.10;;;;;;;19.79;43.93;98058.44;10460582;28;20120;-61
2023/09/15 17:57:08;;;;;;;2.88;1.20;;;;;;;19.71;44.01;98053.91;10460164;28;20075;-61
2023/09/15 18:02:30;;;;;;;3.55;1.20;;;;;;;19.59;44.55;98064.03;10459303;28;20403;-61
2023/09/15 18:07:51;;;;;;;4.45;1.52;;;;;;;19.49;44.86;98060.81;10459523;28;20045;-61
2023/09/15 18:13:13;;;;;;;5.45;1.45;;;;;;;19.44;45.63;98059.94;10459294;28;20434;-61
2023/09/15 18:18:33;;;;;;;4.07;1.60;;;;;;;19.35;45.77;98067.41;10444195;28;20083;-61
2023/09/15 18:23:54;;;;;;;3.00;1.55;;;;;;;19.28;45.84;98059.31;10458820;28;20103;-61
2023/09/15 18:29:16;;;;;;;2.85;1.38;;;;;;;19.21;46.21;98064.03;10458682;28;20083;-61
2023/09/15 18:34:36;;;;;;;3.42;1.63;;;;;;;19.15;46.26;98061.69;10458567;28;20049;-61
2023/09/15 18:39:57;;;;;;;4.50;1.85;;;;;;;19.13;47.54;98060.88;10458158;28;20176;-61
2023/09/15 18:45:18;;;;;;;5.75;1.80;;;;;;;19.08;47.52;98051.50;10458125;28;20116;-61
2023/09/15 18:50:39;;;;;;;2.75;1.40;;;;;;;19.00;47.41;98054.00;10456963;28;20108;-61
2023/09/15 18:56:02;;;;;;;3.20;1.30;;;;;;;18.94;48.91;98055.88;10457852;28;20041;-60
2023/09/15 19:01:24;;;;;;;2.95;1.55;;;;;;;18.84;48.81;98061.88;10457420;28;20053;-61
2023/09/15 19:06:45;;;;;;;2.65;1.42;;;;;;;18.77;48.93;98066.53;10457175;28;20128;-61
2023/09/15 19:12:07;;;;;;;3.20;1.95;;;;;;;18.72;49.02;98061.34;10457496;28;20080;-61
2023/09/15 19:17:27;;;;;;;5.40;2.00;;;;;;;18.66;49.29;98067.50;10442107;28;20068;-61
2023/09/15 19:22:51;;;;;;;4.65;2.08;;;;;;;18.56;49.77;98058.59;10456924;28;20068;-61
2023/09/15 19:28:13;;;;;;;3.97;2.22;;;;;;;18.50;50.60;98073.19;10456589;28;20147;-61
2023/09/15 19:33:34;;;;;;;4.78;1.95;;;;;;;18.41;49.93;98065.72;10456473;28;20080;-61
2023/09/15 19:38:55;;;;;;;5.45;2.13;;;;;;;18.35;49.87;98068.31;10456526;28;20124;-61
2023/09/15 19:44:15;;;;;;;3.35;1.90;;;;;;;18.26;50.81;98061.59;10456357;28;20179;-60
2023/09/15 19:49:36;;;;;;;4.53;2.60;;;;;;;18.19;51.41;98064.81;10456222;28;20148;-61
2023/09/15 19:54:57;;;;;;;2.90;1.70;;;;;;;18.09;51.51;98058.72;10456719;28;20555;-60
2023/09/15 20:00:18;;;;;;;4.95;2.63;;;;;;;18.00;52.16;98064.00;10461015;28;20115;-61
2023/09/15 20:05:40;;;;;;;4.68;2.50;;;;;;;17.91;53.31;98067.84;10464049;28;20084;-61
2023/09/15 20:11:01;;;;;;;4.72;2.50;;;;;;;17.78;53.43;98067.97;10464131;28;20073;-60
2023/09/15 20:16:26;;;;;;;5.68;2.33;;;;;;;17.66;53.31;98070.91;10464264;28;20503;-61
2023/09/15 20:21:47;;;;;;;4.00;2.42;;;;;;;17.58;53.34;98073.41;10463646;28;20482;-61
2023/09/15 20:27:09;;;;;;;4.50;2.38;;;;;;;17.52;53.86;98078.75;10464207;28;20056;-62
2023/09/15 20:32:29;;;;;;;3.30;2.20;;;;;;;17.40;54.60;98073.28;10463506;28;20068;-61
2023/09/15 20:37:50;;;;;;;6.53;1.90;;;;;;;17.33;54.88;98077.91;10448293;28;20509;-63
2023/09/15 20:43:11;;;;;;;4.93;1.98;;;;;;;17.24;56.39;98064.06;10462733;28;20055;-63
2023/09/15 20:48:32;;;;;;;3.50;2.30;;;;;;;17.15;56.84;98072.16;10463004;28;20121;-62
2023/09/15 20:53:53;;;;;;;4.05;1.90;;;;;;;17.06;55.59;98073.13;10462381;28;20471;-63
2023/09/15 20:59:13;;;;;;;4.85;2.13;;;;;;;16.98;56.06;98074.84;10462285;28;20064;-62
2023/09/15 21:04:34;;;;;;;6.05;2.42;;;;;;;16.89;56.59;98070.91;10462225;28;20134;-63
2023/09/15 21:09:55;;;;;;;5.55;2.30;;;;;;;16.83;56.77;98062.16;10460708;28;20087;-63
2023/09/15 21:15:15;;;;;;;8.82;3.60;;;;;;;16.72;56.75;98069.41;10447004;28;20053;-63
2023/09/15 21:20:36;;;;;;;4.25;3.22;;;;;;;16.68;57.16;98077.66;10461331;28;20069;-63
2023/09/15 21:25:57;;;;;;;7.35;4.57;;;;;;;16.66;57.51;98077.53;10461517;28;20075;-63
2023/09/15 21:31:17;;;;;;;7.47;4.07;;;;;;;16.59;57.20;98076.50;10460985;28;20073;-63
2023/09/15 21:36:38;;;;;;;7.22;3.67;;;;;;;16.52;57.95;98076.84;10460906;28;20122;-63
2023/09/15 21:41:59;;;;;;;4.78;3.10;;;;;;;16.45;58.09;98077.88;10461036;28;20033;-63
2023/09/15 21:47:19;;;;;;;6.45;3.40;;;;;;;16.43;58.13;98074.97;10445617;28;20475;-63
2023/09/15 21:52:40;;;;;;;7.70;3.50;;;;;;;16.37;58.30;98072.56;10460344;28;20468;-61
2023/09/15 21:58:02;;;;;;;6.20;3.65;;;;;;;16.31;58.88;98075.09;10445118;28;20084;-62
2023/09/15 22:03:23;;;;;;;7.63;3.20;;;;;;;16.24;59.02;98068.44;10459982;28;20092;-62
2023/09/15 22:08:44;;;;;;;4.55;3.10;;;;;;;16.18;59.74;98061.75;10459381;28;20040;-62
2023/09/15 22:14:08;;;;;;;6.68;3.38;;;;;;;16.12;59.30;98065.00;10459834;28;20056;-62
2023/09/15 22:19:29;;;;;;;5.75;3.42;;;;;;;16.03;59.08;98066.66;10458968;28;20049;-62
2023/09/15 22:24:50;;;;;;;5.95;3.40;;;;;;;15.94;60.32;98066.88;10458666;28;20471;-62
2023/09/15 22:30:11;;;;;;;4.72;3.17;;;;;;;15.90;60.22;98064.56;10458840;28;20185;-62
2023/09/15 22:35:31;;;;;;;3.97;2.90;;;;;;;15.83;60.54;98073.34;10443507;28;20073;-62
2023/09/15 22:40:54;;;;;;;6.00;3.17;;;;;;;15.79;60.21;98056.97;10458356;28;20080;-61
2023/09/15 22:46:30;;;;;;;8.00;3.03;;;;;;;15.71;60.89;98054.44;10457970;28;20072;-62
2023/09/15 22:51:52;;;;;;;6.25;3.03;;;;;;;15.74;61.26;98056.03;10457953;28;20553;-62
2023/09/15 22:57:13;;;;;;;9.88;6.57;;;;;;;15.65;60.83;98042.88;10457930;28;20380;-62
2023/09/15 23:02:34;;;;;;;5.00;3.30;;;;;;;15.57;61.30;98055.78;10457303;28;20055;-62
2023/09/15 23:07:55;;;;;;;7.03;2.72;;;;;;;15.41;62.36;98052.81;10457838;28;20156;-62
2023/09/15 23:13:16;;;;;;;5.22;3.13;;;;;;;15.34;62.30;98053.84;10457378;28;20123;-62
2023/09/15 23:18:37;;;;;;;6.47;2.85;;;;;;;15.32;62.69;98056.53;10442098;28;20041;-62
2023/09/15 23:23:58;;;;;;;4.75;2.88;;;;;;;15.28;62.95;98045.09;10436892;28;20454;-62
2023/09/15 23:29:19;;;;;;;4.35;3.13;;;;;;;15.22;63.00;98042.66;10422287;28;20065;-62
2023/09/15 23:34:40;;;;;;;5.85;3.00;;;;;;;15.19;62.85;98038.28;10406145;28;20132;-62
2023/09/15 23:40:00;;;;;;;4.25;3.05;;;;;;;15.13;63.17;98024.63;10430004;28;20049;-62
2023/09/15 23:45:21;;;;;;;6.10;3.30;;;;;;;15.16;63.44;98039.53;10442528;28;20113;-62
2023/09/15 23:50:42;;;;;;;6.35;2.75;;;;;;;15.11;63.71;98040.66;10418953;28;20040;-62
2023/09/15 23:56:04;;;;;;;4.68;3.00;;;;;;;15.07;63.83;98046.06;10415215;28;20449;-62
